sensor_id;sensor_type;location;lat;lon;timestamp;pressure;altitude;pressure_sealevel;temperature;humidity
33422;BME280;19763;55.798;37.782;2023-06-10T00:01:52;150723.31;;;13.67;58.86
33422;BME280;19763;55.798;37.782;2023-06-10T00:04:20;150691.19;;;13.54;58.82
33422;BME280;19763;55.798;37.782;2023-06-10T00:06:47;150705.31;;;13.60;59.27
33422;BME280;19763;55.798;37.782;2023-06-10T00:09:15;150688.59;;;13.53;59.26
33422;BME280;19763;55.798;37.782;2023-06-10T00:11:41;150679.63;;;13.50;59.00
33422;BME280;19763;55.798;37.782;2023-06-10T00:14:07;150701.47;;;13.58;59.57
33422;BME280;19763;55.798;37.782;2023-06-10T00:16:33;150732.28;;;13.71;58.93
33422;BME280;19763;55.798;37.782;2023-06-10T00:19:00;150715.63;;;13.64;59.59
33422;BME280;19763;55.798;37.782;2023-06-10T00:21:27;150655.19;;;13.40;59.40
33422;BME280;19763;55.798;37.782;2023-06-10T00:23:53;150612.75;;;13.23;60.55
33422;BME280;19763;55.798;37.782;2023-06-10T00:26:18;150620.44;;;13.26;60.18
33422;BME280;19763;55.798;37.782;2023-06-10T00:28:44;150644.91;;;13.36;60.24
33422;BME280;19763;55.798;37.782;2023-06-10T00:31:10;150659.06;;;13.41;59.27
33422;BME280;19763;55.798;37.782;2023-06-10T00:33:36;150684.75;;;13.52;59.89
33422;BME280;19763;55.798;37.782;2023-06-10T00:36:01;150697.63;;;13.57;59.52
33422;BME280;19763;55.798;37.782;2023-06-10T00:38:27;150671.88;;;13.46;60.55
33422;BME280;19763;55.798;37.782;2023-06-10T00:40:53;150650.03;;;13.38;60.21
33422;BME280;19763;55.798;37.782;2023-06-10T00:43:18;150642.34;;;13.35;60.15
33422;BME280;19763;55.798;37.782;2023-06-10T00:45:44;150657.72;;;13.41;60.50
33422;BME280;19763;55.798;37.782;2023-06-10T00:48:09;150589.59;;;13.13;60.39
33422;BME280;19763;55.798;37.782;2023-06-10T00:50:35;150575.44;;;13.08;60.63
33422;BME280;19763;55.798;37.782;2023-06-10T00:53:05;150552.34;;;12.99;60.97
33422;BME280;19763;55.798;37.782;2023-06-10T00:55:31;150517.66;;;12.85;60.38
33422;BME280;19763;55.798;37.782;2023-06-10T00:57:58;150571.59;;;13.06;61.45
33422;BME280;19763;55.798;37.782;2023-06-10T01:00:24;150588.31;;;13.13;61.32
33422;BME280;19763;55.798;37.782;2023-06-10T01:02:51;150567.75;;;13.05;61.63
33422;BME280;19763;55.798;37.782;2023-06-10T01:05:20;150549.75;;;12.98;61.84
33422;BME280;19763;55.798;37.782;2023-06-10T01:13:06;150589.59;;;13.13;62.53
33422;BME280;19763;55.798;37.782;2023-06-10T01:15:34;150594.75;;;13.16;62.54
33422;BME280;19763;55.798;37.782;2023-06-10T01:18:09;150624.28;;;13.27;61.94
33422;BME280;19763;55.798;37.782;2023-06-10T01:20:41;150596.03;;;13.16;63.00
33422;BME280;19763;55.798;37.782;2023-06-10T01:23:10;150569.03;;;13.05;61.73
33422;BME280;19763;55.798;37.782;2023-06-10T01:25:40;150589.59;;;13.13;62.50
33422;BME280;19763;55.798;37.782;2023-06-10T01:28:24;150572.91;;;13.07;62.84
33422;BME280;19763;55.798;37.782;2023-06-10T01:33:36;150530.50;;;12.90;61.73
33422;BME280;19763;55.798;37.782;2023-06-10T01:36:03;150547.19;;;12.97;63.08
33422;BME280;19763;55.798;37.782;2023-06-10T01:38:33;150542.06;;;12.94;63.61
33422;BME280;19763;55.798;37.782;2023-06-10T01:41:00;150558.78;;;13.01;62.54
33422;BME280;19763;55.798;37.782;2023-06-10T01:43:26;150570.34;;;13.06;62.04
33422;BME280;19763;55.798;37.782;2023-06-10T01:45:52;150552.34;;;12.99;63.18
33422;BME280;19763;55.798;37.782;2023-06-10T01:48:17;150578.03;;;13.09;63.49
33422;BME280;19763;55.798;37.782;2023-06-10T01:50:43;150592.16;;;13.15;62.62
33422;BME280;19763;55.798;37.782;2023-06-10T01:53:09;150542.06;;;12.94;62.83
33422;BME280;19763;55.798;37.782;2023-06-10T01:55:35;150580.63;;;13.10;63.59
33422;BME280;19763;55.798;37.782;2023-06-10T01:58:00;150569.03;;;13.05;62.39
33422;BME280;19763;55.798;37.782;2023-06-10T02:00:26;150567.75;;;13.05;63.64
33422;BME280;19763;55.798;37.782;2023-06-10T02:02:51;150547.19;;;12.97;63.39
33422;BME280;19763;55.798;37.782;2023-06-10T02:05:17;150540.78;;;12.94;63.93
33422;BME280;19763;55.798;37.782;2023-06-10T02:07:42;150500.94;;;12.78;63.00
33422;BME280;19763;55.798;37.782;2023-06-10T02:10:08;150506.09;;;12.80;63.25
33422;BME280;19763;55.798;37.782;2023-06-10T02:12:34;150513.81;;;12.83;63.17
33422;BME280;19763;55.798;37.782;2023-06-10T02:14:59;150549.75;;;12.98;63.50
33422;BME280;19763;55.798;37.782;2023-06-10T02:17:25;150494.53;;;12.75;63.69
33422;BME280;19763;55.798;37.782;2023-06-10T02:20:11;150576.75;;;13.08;62.58
33422;BME280;19763;55.798;37.782;2023-06-10T02:22:38;150543.34;;;12.95;62.90
33422;BME280;19763;55.798;37.782;2023-06-10T02:25:05;150529.19;;;12.89;62.73
33422;BME280;19763;55.798;37.782;2023-06-10T02:27:31;150453.44;;;12.59;62.89
33422;BME280;19763;55.798;37.782;2023-06-10T02:29:57;150500.94;;;12.78;63.04
33422;BME280;19763;55.798;37.782;2023-06-10T02:32:23;150464.97;;;12.64;62.41
33422;BME280;19763;55.798;37.782;2023-06-10T02:34:48;150508.63;;;12.81;62.84
33422;BME280;19763;55.798;37.782;2023-06-10T02:37:15;150507.38;;;12.81;62.82
33422;BME280;19763;55.798;37.782;2023-06-10T02:39:40;150447.00;;;12.56;63.43
33422;BME280;19763;55.798;37.782;2023-06-10T02:42:06;150443.16;;;12.55;62.62
33422;BME280;19763;55.798;37.782;2023-06-10T02:44:32;150404.59;;;12.39;63.21
33422;BME280;19763;55.798;37.782;2023-06-10T02:46:58;150439.28;;;12.53;63.92
33422;BME280;19763;55.798;37.782;2023-06-10T02:49:23;150377.66;;;12.29;63.88
33422;BME280;19763;55.798;37.782;2023-06-10T02:51:50;150345.56;;;12.16;63.83
33422;BME280;19763;55.798;37.782;2023-06-10T02:54:20;150390.47;;;12.34;62.64
33422;BME280;19763;55.798;37.782;2023-06-10T02:56:45;150395.66;;;12.36;63.58
33422;BME280;19763;55.798;37.782;2023-06-10T02:59:13;150351.94;;;12.18;63.13
33422;BME280;19763;55.798;37.782;2023-06-10T03:01:39;150367.38;;;12.24;64.61
33422;BME280;19763;55.798;37.782;2023-06-10T03:04:05;150339.13;;;12.13;63.93
33422;BME280;19763;55.798;37.782;2023-06-10T03:06:31;150422.59;;;12.47;62.77
33422;BME280;19763;55.798;37.782;2023-06-10T03:08:59;150456.00;;;12.60;62.68
33422;BME280;19763;55.798;37.782;2023-06-10T03:11:24;150470.13;;;12.66;62.26
33422;BME280;19763;55.798;37.782;2023-06-10T03:13:51;150490.66;;;12.74;62.72
33422;BME280;19763;55.798;37.782;2023-06-10T03:16:19;150536.91;;;12.92;62.98
33422;BME280;19763;55.798;37.782;2023-06-10T03:18:45;150566.47;;;13.04;61.86
33422;BME280;19763;55.798;37.782;2023-06-10T03:21:10;150583.16;;;13.11;61.78
33422;BME280;19763;55.798;37.782;2023-06-10T03:23:36;150634.56;;;13.32;61.47
33422;BME280;19763;55.798;37.782;2023-06-10T03:26:02;150639.69;;;13.34;61.03
33422;BME280;19763;55.798;37.782;2023-06-10T03:28:27;150576.75;;;13.08;60.62
33422;BME280;19763;55.798;37.782;2023-06-10T03:30:53;150520.22;;;12.86;61.24
33422;BME280;19763;55.798;37.782;2023-06-10T03:33:18;150606.31;;;13.20;61.00
33422;BME280;19763;55.798;37.782;2023-06-10T03:35:45;150644.91;;;13.36;61.32
33422;BME280;19763;55.798;37.782;2023-06-10T03:38:10;150666.75;;;13.44;61.23
33422;BME280;19763;55.798;37.782;2023-06-10T03:40:36;150644.91;;;13.36;61.18
33422;BME280;19763;55.798;37.782;2023-06-10T03:43:01;150691.19;;;13.54;59.61
33422;BME280;19763;55.798;37.782;2023-06-10T03:45:27;150709.16;;;13.61;59.53
33422;BME280;19763;55.798;37.782;2023-06-10T03:47:53;150683.47;;;13.51;60.02
33422;BME280;19763;55.798;37.782;2023-06-10T03:50:19;150679.63;;;13.50;58.96
33422;BME280;19763;55.798;37.782;2023-06-10T03:52:45;150817.16;;;14.05;58.64
33422;BME280;19763;55.798;37.782;2023-06-10T03:55:12;150774.72;;;13.88;59.24
33422;BME280;19763;55.798;37.782;2023-06-10T03:57:39;150702.72;;;13.59;58.74
33422;BME280;19763;55.798;37.782;2023-06-10T04:00:05;150779.88;;;13.90;58.89
33422;BME280;19763;55.798;37.782;2023-06-10T04:02:35;150738.72;;;13.73;57.08
33422;BME280;19763;55.798;37.782;2023-06-10T04:05:01;150751.59;;;13.78;57.71
33422;BME280;19763;55.798;37.782;2023-06-10T04:07:27;150773.44;;;13.87;57.85
33422;BME280;19763;55.798;37.782;2023-06-10T04:09:53;150765.75;;;13.84;57.80
33422;BME280;19763;55.798;37.782;2023-06-10T04:12:19;150795.28;;;13.96;56.71
33422;BME280;19763;55.798;37.782;2023-06-10T04:14:46;150806.84;;;14.01;56.89
33422;BME280;19763;55.798;37.782;2023-06-10T04:17:12;150727.16;;;13.69;56.49
33422;BME280;19763;55.798;37.782;2023-06-10T04:19:37;150822.31;;;14.07;56.84
33422;BME280;19763;55.798;37.782;2023-06-10T04:22:03;150804.31;;;14.00;55.63
33422;BME280;19763;55.798;37.782;2023-06-10T04:24:29;150845.44;;;14.16;56.98
33422;BME280;19763;55.798;37.782;2023-06-10T04:26:55;150836.47;;;14.12;54.85
33422;BME280;19763;55.798;37.782;2023-06-10T04:29:20;150763.16;;;13.83;55.43
33422;BME280;19763;55.798;37.782;2023-06-10T04:31:46;150794.03;;;13.95;54.77
33422;BME280;19763;55.798;37.782;2023-06-10T04:34:12;150851.88;;;14.19;54.91
33422;BME280;19763;55.798;37.782;2023-06-10T04:36:38;150885.28;;;14.32;56.66
33422;BME280;19763;55.798;37.782;2023-06-10T04:39:03;150920.03;;;14.46;53.39
33422;BME280;19763;55.798;37.782;2023-06-10T04:41:31;150900.75;;;14.38;53.48
33422;BME280;19763;55.798;37.782;2023-06-10T04:43:56;150882.75;;;14.31;53.45
33422;BME280;19763;55.798;37.782;2023-06-10T04:46:23;150916.19;;;14.44;52.28
33422;BME280;19763;55.798;37.782;2023-06-10T04:48:49;150945.75;;;14.56;52.37
33422;BME280;19763;55.798;37.782;2023-06-10T04:51:15;150953.50;;;14.59;52.31
33422;BME280;19763;55.798;37.782;2023-06-10T04:53:41;150894.31;;;14.36;51.50
33422;BME280;19763;55.798;37.782;2023-06-10T04:56:07;150957.34;;;14.61;51.54
33422;BME280;19763;55.798;37.782;2023-06-10T04:58:33;150975.41;;;14.68;52.51
33422;BME280;19763;55.798;37.782;2023-06-10T05:00:58;151025.59;;;14.88;52.23
33422;BME280;19763;55.798;37.782;2023-06-10T05:03:25;151039.72;;;14.94;51.89
33422;BME280;19763;55.798;37.782;2023-06-10T05:05:50;151015.28;;;14.84;52.93
33422;BME280;19763;55.798;37.782;2023-06-10T05:08:16;151048.72;;;14.97;53.40
33422;BME280;19763;55.798;37.782;2023-06-10T05:10:42;151123.34;;;15.27;53.36
33422;BME280;19763;55.798;37.782;2023-06-10T05:13:07;151118.22;;;15.25;52.38
33422;BME280;19763;55.798;37.782;2023-06-10T05:15:33;151123.34;;;15.27;50.92
33422;BME280;19763;55.798;37.782;2023-06-10T05:17:58;151169.69;;;15.46;50.53
33422;BME280;19763;55.798;37.782;2023-06-10T05:20:25;151189.03;;;15.53;49.07
33422;BME280;19763;55.798;37.782;2023-06-10T05:22:51;151288.16;;;15.93;48.99
33422;BME280;19763;55.798;37.782;2023-06-10T05:25:16;151265.00;;;15.84;49.09
33422;BME280;19763;55.798;37.782;2023-06-10T05:27:42;151210.91;;;15.62;48.71
33422;BME280;19763;55.798;37.782;2023-06-10T05:30:10;151248.22;;;15.77;49.85
33422;BME280;19763;55.798;37.782;2023-06-10T05:32:36;151267.59;;;15.85;48.79
33422;BME280;19763;55.798;37.782;2023-06-10T05:35:01;151169.69;;;15.46;50.13
33422;BME280;19763;55.798;37.782;2023-06-10T05:37:29;151200.59;;;15.58;49.47
33422;BME280;19763;55.798;37.782;2023-06-10T05:39:55;151250.78;;;15.78;49.51
33422;BME280;19763;55.798;37.782;2023-06-10T05:42:20;151261.16;;;15.82;48.35
33422;BME280;19763;55.798;37.782;2023-06-10T05:44:46;151277.91;;;15.89;49.36
33422;BME280;19763;55.798;37.782;2023-06-10T05:47:11;151228.91;;;15.69;48.90
33422;BME280;19763;55.798;37.782;2023-06-10T05:49:37;151265.00;;;15.84;50.41
33422;BME280;19763;55.798;37.782;2023-06-10T05:52:02;151226.31;;;15.68;49.87
33422;BME280;19763;55.798;37.782;2023-06-10T05:54:28;151262.41;;;15.83;50.03
33422;BME280;19763;55.798;37.782;2023-06-10T05:56:53;151329.38;;;16.10;50.01
33422;BME280;19763;55.798;37.782;2023-06-10T05:59:19;151339.69;;;16.14;50.37
33422;BME280;19763;55.798;37.782;2023-06-10T06:01:45;151383.47;;;16.31;49.29
33422;BME280;19763;55.798;37.782;2023-06-10T06:04:10;151378.34;;;16.29;50.04
33422;BME280;19763;55.798;37.782;2023-06-10T06:06:38;151422.09;;;16.47;49.79
33422;BME280;19763;55.798;37.782;2023-06-10T06:09:04;151384.78;;;16.32;48.73
33422;BME280;19763;55.798;37.782;2023-06-10T06:11:30;151422.09;;;16.47;48.98
33422;BME280;19763;55.798;37.782;2023-06-10T06:13:56;151453.03;;;16.59;49.68
33422;BME280;19763;55.798;37.782;2023-06-10T06:16:21;151397.63;;;16.37;49.17
33422;BME280;19763;55.798;37.782;2023-06-10T06:18:47;151370.63;;;16.26;48.62
33422;BME280;19763;55.798;37.782;2023-06-10T06:21:12;151379.59;;;16.30;49.83
33422;BME280;19763;55.798;37.782;2023-06-10T06:23:38;151355.13;;;16.20;49.68
33422;BME280;19763;55.798;37.782;2023-06-10T06:26:03;151321.66;;;16.07;48.48
33422;BME280;19763;55.798;37.782;2023-06-10T06:28:29;151424.69;;;16.48;49.55
33422;BME280;19763;55.798;37.782;2023-06-10T06:30:56;151404.09;;;16.39;49.44
33422;BME280;19763;55.798;37.782;2023-06-10T06:33:22;151383.47;;;16.31;48.87
33422;BME280;19763;55.798;37.782;2023-06-10T06:35:47;151388.66;;;16.33;49.28
33422;BME280;19763;55.798;37.782;2023-06-10T06:38:13;151384.78;;;16.32;48.87
33422;BME280;19763;55.798;37.782;2023-06-10T06:40:38;151334.50;;;16.12;47.67
33422;BME280;19763;55.798;37.782;2023-06-10T06:43:04;151302.31;;;15.99;48.69
33422;BME280;19763;55.798;37.782;2023-06-10T06:45:29;151266.28;;;15.84;49.85
33422;BME280;19763;55.798;37.782;2023-06-10T06:47:55;151270.13;;;15.86;48.75
33422;BME280;19763;55.798;37.782;2023-06-10T06:50:21;151295.91;;;15.96;47.54
33422;BME280;19763;55.798;37.782;2023-06-10T06:52:47;151364.16;;;16.24;48.09
33422;BME280;19763;55.798;37.782;2023-06-10T06:55:12;151383.47;;;16.31;46.64
33422;BME280;19763;55.798;37.782;2023-06-10T06:57:38;151391.19;;;16.34;46.77
33422;BME280;19763;55.798;37.782;2023-06-10T07:00:04;151388.66;;;16.33;46.35
33422;BME280;19763;55.798;37.782;2023-06-10T07:02:30;151460.75;;;16.62;46.32
33422;BME280;19763;55.798;37.782;2023-06-10T07:04:57;151447.84;;;16.57;46.91
33422;BME280;19763;55.798;37.782;2023-06-10T07:07:24;151468.47;;;16.65;46.06
33422;BME280;19763;55.798;37.782;2023-06-10T07:09:50;151514.84;;;16.84;46.71
33422;BME280;19763;55.798;37.782;2023-06-10T07:12:15;151496.81;;;16.77;46.54
33422;BME280;19763;55.798;37.782;2023-06-10T07:14:41;151458.16;;;16.61;46.41
33422;BME280;19763;55.798;37.782;2023-06-10T07:17:07;151406.66;;;16.41;45.90
33422;BME280;19763;55.798;37.782;2023-06-10T07:19:32;151393.78;;;16.35;46.38
33422;BME280;19763;55.798;37.782;2023-06-10T07:21:58;151384.78;;;16.32;45.54
33422;BME280;19763;55.798;37.782;2023-06-10T07:24:23;151344.81;;;16.16;46.48
33422;BME280;19763;55.798;37.782;2023-06-10T07:26:49;151407.94;;;16.41;46.79
33422;BME280;19763;55.798;37.782;2023-06-10T07:29:15;151472.34;;;16.67;46.67
33422;BME280;19763;55.798;37.782;2023-06-10T07:31:41;151407.94;;;16.41;44.85
33422;BME280;19763;55.798;37.782;2023-06-10T07:34:07;151435.00;;;16.52;43.97
33422;BME280;19763;55.798;37.782;2023-06-10T07:36:32;151413.06;;;16.43;44.27
33422;BME280;19763;55.798;37.782;2023-06-10T07:38:58;151331.97;;;16.11;44.75
33422;BME280;19763;55.798;37.782;2023-06-10T07:41:24;151325.53;;;16.08;44.99
33422;BME280;19763;55.798;37.782;2023-06-10T07:43:53;151406.66;;;16.41;45.78
33422;BME280;19763;55.798;37.782;2023-06-10T07:46:22;151440.13;;;16.54;46.04
33422;BME280;19763;55.798;37.782;2023-06-10T07:48:48;151420.84;;;16.46;44.63
33422;BME280;19763;55.798;37.782;2023-06-10T07:51:15;151477.53;;;16.69;43.22
33422;BME280;19763;55.798;37.782;2023-06-10T07:53:41;151429.81;;;16.50;41.15
33422;BME280;19763;55.798;37.782;2023-06-10T07:56:06;151481.38;;;16.70;41.51
33422;BME280;19763;55.798;37.782;2023-06-10T07:58:32;151543.25;;;16.95;41.11
33422;BME280;19763;55.798;37.782;2023-06-10T08:00:58;151592.22;;;17.15;41.91
33422;BME280;19763;55.798;37.782;2023-06-10T08:03:23;151601.22;;;17.18;42.11
33422;BME280;19763;55.798;37.782;2023-06-10T08:05:49;151518.72;;;16.85;39.57
33422;BME280;19763;55.798;37.782;2023-06-10T08:08:14;151504.53;;;16.80;39.58
33422;BME280;19763;55.798;37.782;2023-06-10T08:10:40;151491.69;;;16.74;40.95
33422;BME280;19763;55.798;37.782;2023-06-10T08:13:06;151507.13;;;16.81;41.06
33422;BME280;19763;55.798;37.782;2023-06-10T08:15:31;151583.19;;;17.11;41.02
33422;BME280;19763;55.798;37.782;2023-06-10T08:17:57;151569.00;;;17.05;39.98
33422;BME280;19763;55.798;37.782;2023-06-10T08:20:22;151651.50;;;17.38;39.44
33422;BME280;19763;55.798;37.782;2023-06-10T08:22:48;151690.16;;;17.54;39.00
33422;BME280;19763;55.798;37.782;2023-06-10T08:25:13;151732.72;;;17.71;39.43
33422;BME280;19763;55.798;37.782;2023-06-10T08:27:39;151735.31;;;17.72;39.69
33422;BME280;19763;55.798;37.782;2023-06-10T08:30:05;151692.75;;;17.55;38.98
33422;BME280;19763;55.798;37.782;2023-06-10T08:32:31;151585.78;;;17.12;38.27
33422;BME280;19763;55.798;37.782;2023-06-10T08:34:56;151545.84;;;16.96;38.99
33422;BME280;19763;55.798;37.782;2023-06-10T08:37:22;151696.63;;;17.56;39.21
33422;BME280;19763;55.798;37.782;2023-06-10T08:39:47;151752.06;;;17.79;39.02
33422;BME280;19763;55.798;37.782;2023-06-10T08:42:31;151687.56;;;17.53;39.00
33422;BME280;19763;55.798;37.782;2023-06-10T08:45:01;151584.50;;;17.12;39.72
33422;BME280;19763;55.798;37.782;2023-06-10T08:47:30;151673.41;;;17.47;40.37
33422;BME280;19763;55.798;37.782;2023-06-10T08:50:02;151713.38;;;17.63;37.96
33422;BME280;19763;55.798;37.782;2023-06-10T08:52:35;151748.16;;;17.77;37.60
33422;BME280;19763;55.798;37.782;2023-06-10T08:55:12;151777.84;;;17.89;37.22
33422;BME280;19763;55.798;37.782;2023-06-10T08:57:41;151741.75;;;17.74;34.60
33422;BME280;19763;55.798;37.782;2023-06-10T09:00:07;151828.19;;;18.09;36.15
33422;BME280;19763;55.798;37.782;2023-06-10T09:02:33;151768.81;;;17.85;36.66
33422;BME280;19763;55.798;37.782;2023-06-10T09:05:00;151784.34;;;17.91;37.82
33422;BME280;19763;55.798;37.782;2023-06-10T09:07:27;151829.44;;;18.09;37.10
33422;BME280;19763;55.798;37.782;2023-06-10T09:09:57;151775.25;;;17.88;37.82
33422;BME280;19763;55.798;37.782;2023-06-10T09:12:24;151746.88;;;17.76;37.62
33422;BME280;19763;55.798;37.782;2023-06-10T09:14:50;151772.66;;;17.87;38.24
33422;BME280;19763;55.798;37.782;2023-06-10T09:17:16;151632.19;;;17.31;37.59
33422;BME280;19763;55.798;37.782;2023-06-10T09:19:44;151686.31;;;17.52;38.49
33422;BME280;19763;55.798;37.782;2023-06-10T09:22:10;151664.41;;;17.43;38.35
33422;BME280;19763;55.798;37.782;2023-06-10T09:24:36;151670.84;;;17.46;38.63
33422;BME280;19763;55.798;37.782;2023-06-10T09:27:06;151678.56;;;17.49;38.93
33422;BME280;19763;55.798;37.782;2023-06-10T09:29:55;151663.13;;;17.43;36.68
33422;BME280;19763;55.798;37.782;2023-06-10T09:32:23;151620.59;;;17.26;35.69
33422;BME280;19763;55.798;37.782;2023-06-10T09:34:49;151674.72;;;17.48;35.59
33422;BME280;19763;55.798;37.782;2023-06-10T09:37:24;151776.53;;;17.88;36.30
33422;BME280;19763;55.798;37.782;2023-06-10T09:40:03;151830.78;;;18.10;34.83
33422;BME280;19763;55.798;37.782;2023-06-10T09:42:33;151753.34;;;17.79;33.97
33422;BME280;19763;55.798;37.782;2023-06-10T09:44:59;151837.19;;;18.13;36.15
33422;BME280;19763;55.798;37.782;2023-06-10T09:47:25;151820.44;;;18.06;36.15
33422;BME280;19763;55.798;37.782;2023-06-10T09:49:51;151721.13;;;17.66;36.56
33422;BME280;19763;55.798;37.782;2023-06-10T09:52:25;151731.44;;;17.70;36.50
33422;BME280;19763;55.798;37.782;2023-06-10T09:54:52;151638.63;;;17.33;37.71
33422;BME280;19763;55.798;37.782;2023-06-10T09:57:19;151545.84;;;16.96;36.63
33422;BME280;19763;55.798;37.782;2023-06-10T09:59:45;151526.50;;;16.88;37.02
33422;BME280;19763;55.798;37.782;2023-06-10T10:02:17;151556.16;;;17.00;37.33
33422;BME280;19763;55.798;37.782;2023-06-10T10:04:43;151599.97;;;17.18;37.36
33422;BME280;19763;55.798;37.782;2023-06-10T10:07:10;151628.31;;;17.29;36.97
33422;BME280;19763;55.798;37.782;2023-06-10T10:09:41;151608.97;;;17.21;37.17
33422;BME280;19763;55.798;37.782;2023-06-10T10:12:11;151634.75;;;17.32;36.48
33422;BME280;19763;55.798;37.782;2023-06-10T10:14:37;151648.94;;;17.37;35.55
33422;BME280;19763;55.798;37.782;2023-06-10T10:17:10;151580.59;;;17.10;35.21
33422;BME280;19763;55.798;37.782;2023-06-10T10:19:58;151558.69;;;17.01;35.70
33422;BME280;19763;55.798;37.782;2023-06-10T10:22:30;151553.56;;;16.99;36.29
33422;BME280;19763;55.798;37.782;2023-06-10T10:25:05;151520.00;;;16.86;37.16
33422;BME280;19763;55.798;37.782;2023-06-10T10:27:36;151566.44;;;17.04;35.51
33422;BME280;19763;55.798;37.782;2023-06-10T10:30:02;151629.59;;;17.30;35.01
33422;BME280;19763;55.798;37.782;2023-06-10T10:32:37;151599.97;;;17.18;35.54
33422;BME280;19763;55.798;37.782;2023-06-10T10:37:32;151633.44;;;17.31;36.85
33422;BME280;19763;55.798;37.782;2023-06-10T10:39:59;151601.22;;;17.18;36.76
33422;BME280;19763;55.798;37.782;2023-06-10T10:42:25;151643.75;;;17.35;36.76
33422;BME280;19763;55.798;37.782;2023-06-10T10:44:52;151621.88;;;17.27;35.39
33422;BME280;19763;55.798;37.782;2023-06-10T10:47:21;151603.81;;;17.19;36.83
33422;BME280;19763;55.798;37.782;2023-06-10T10:49:48;151607.69;;;17.21;37.31
33422;BME280;19763;55.798;37.782;2023-06-10T10:52:16;151560.03;;;17.02;36.96
33422;BME280;19763;55.798;37.782;2023-06-10T10:54:46;151530.34;;;16.90;36.81
33422;BME280;19763;55.798;37.782;2023-06-10T10:57:17;151550.97;;;16.98;36.46
33422;BME280;19763;55.798;37.782;2023-06-10T10:59:55;151522.59;;;16.87;36.60
33422;BME280;19763;55.798;37.782;2023-06-10T11:02:43;151583.19;;;17.11;37.59
33422;BME280;19763;55.798;37.782;2023-06-10T11:05:15;151589.66;;;17.14;37.82
33422;BME280;19763;55.798;37.782;2023-06-10T11:07:40;151592.22;;;17.15;37.58
33422;BME280;19763;55.798;37.782;2023-06-10T11:10:16;151614.13;;;17.23;36.01
33422;BME280;19763;55.798;37.782;2023-06-10T11:15:18;151657.94;;;17.41;36.20
33422;BME280;19763;55.798;37.782;2023-06-10T11:18:13;151646.34;;;17.36;36.67
33422;BME280;19763;55.798;37.782;2023-06-10T11:26:17;151585.78;;;17.12;35.87
33422;BME280;19763;55.798;37.782;2023-06-10T11:31:21;151550.97;;;16.98;34.58
33422;BME280;19763;55.798;37.782;2023-06-10T11:33:47;151548.38;;;16.97;36.40
33422;BME280;19763;55.798;37.782;2023-06-10T11:36:14;151534.22;;;16.91;35.58
33422;BME280;19763;55.798;37.782;2023-06-10T11:38:43;151535.53;;;16.92;35.04
33422;BME280;19763;55.798;37.782;2023-06-10T11:41:10;151574.19;;;17.07;34.62
33422;BME280;19763;55.798;37.782;2023-06-10T11:43:37;151578.06;;;17.09;34.97
33422;BME280;19763;55.798;37.782;2023-06-10T11:46:06;151532.94;;;16.91;34.15
33422;BME280;19763;55.798;37.782;2023-06-10T11:48:33;151539.41;;;16.94;33.59
33422;BME280;19763;55.798;37.782;2023-06-10T11:50:59;151521.31;;;16.86;34.22
33422;BME280;19763;55.798;37.782;2023-06-10T11:53:25;151599.97;;;17.18;35.21
33422;BME280;19763;55.798;37.782;2023-06-10T11:55:51;151612.88;;;17.23;34.62
33422;BME280;19763;55.798;37.782;2023-06-10T11:58:21;151633.44;;;17.31;34.56
33422;BME280;19763;55.798;37.782;2023-06-10T12:00:51;151562.56;;;17.03;34.58
33422;BME280;19763;55.798;37.782;2023-06-10T12:03:17;151641.19;;;17.34;34.14
33422;BME280;19763;55.798;37.782;2023-06-10T12:05:59;151637.31;;;17.33;34.65
33422;BME280;19763;55.798;37.782;2023-06-10T12:08:26;151610.28;;;17.22;34.28
33422;BME280;19763;55.798;37.782;2023-06-10T12:10:53;151616.72;;;17.24;34.78
33422;BME280;19763;55.798;37.782;2023-06-10T12:13:18;151576.75;;;17.08;34.06
33422;BME280;19763;55.798;37.782;2023-06-10T12:15:45;151562.56;;;17.03;33.76
33422;BME280;19763;55.798;37.782;2023-06-10T12:18:23;151566.44;;;17.04;35.08
33422;BME280;19763;55.798;37.782;2023-06-10T12:20:50;151566.44;;;17.04;35.92
33422;BME280;19763;55.798;37.782;2023-06-10T12:23:19;151550.97;;;16.98;36.51
33422;BME280;19763;55.798;37.782;2023-06-10T12:25:55;151566.44;;;17.04;37.67
33422;BME280;19763;55.798;37.782;2023-06-10T12:28:25;151545.84;;;16.96;37.36
33422;BME280;19763;55.798;37.782;2023-06-10T12:30:51;151498.09;;;16.77;36.49
33422;BME280;19763;55.798;37.782;2023-06-10T12:33:21;151501.97;;;16.79;36.70
33422;BME280;19763;55.798;37.782;2023-06-10T12:35:51;151587.06;;;17.13;35.95
33422;BME280;19763;55.798;37.782;2023-06-10T12:38:24;151646.34;;;17.36;35.87
33422;BME280;19763;55.798;37.782;2023-06-10T12:40:50;151651.50;;;17.38;36.08
33422;BME280;19763;55.798;37.782;2023-06-10T12:43:20;151615.41;;;17.24;35.00
33422;BME280;19763;55.798;37.782;2023-06-10T12:45:47;151572.88;;;17.07;35.18
33422;BME280;19763;55.798;37.782;2023-06-10T12:48:23;151525.22;;;16.88;34.09
33422;BME280;19763;55.798;37.782;2023-06-10T12:50:57;151478.78;;;16.69;33.72
33422;BME280;19763;55.798;37.782;2023-06-10T12:53:24;151504.53;;;16.80;34.26
33422;BME280;19763;55.798;37.782;2023-06-10T12:55:50;151527.81;;;16.89;34.99
33422;BME280;19763;55.798;37.782;2023-06-10T12:58:16;151535.53;;;16.92;35.43
33422;BME280;19763;55.798;37.782;2023-06-10T13:00:42;151529.09;;;16.89;34.85
33422;BME280;19763;55.798;37.782;2023-06-10T13:03:08;151525.22;;;16.88;35.97